createdAt,value
2017-06-03T00:00:37.704Z,13.3
2017-06-03T00:01:56.374Z,13.3
2017-06-03T00:03:15.145Z,13.3
2017-06-03T00:04:33.869Z,13.3
2017-06-03T00:05:52.557Z,13.3
2017-06-03T00:07:11.287Z,13.3
2017-06-03T00:08:29.993Z,13.3
2017-06-03T00:09:48.716Z,13.3
2017-06-03T00:11:07.417Z,13.3
2017-06-03T00:12:26.109Z,13.3
2017-06-03T00:13:44.795Z,13.2
2017-06-03T00:15:03.515Z,13.2
2017-06-03T00:16:22.178Z,13.2
2017-06-03T00:17:40.850Z,13.2
2017-06-03T00:18:59.597Z,13.2
2017-06-03T00:20:18.267Z,13.2
2017-06-03T00:21:36.989Z,13.1
2017-06-03T00:22:55.711Z,13.1
2017-06-03T00:24:14.388Z,13
2017-06-03T00:25:33.055Z,13
2017-06-03T00:26:51.724Z,13
2017-06-03T00:28:10.398Z,12.9
2017-06-03T00:29:29.121Z,12.9
2017-06-03T00:30:47.846Z,12.9
2017-06-03T00:32:06.562Z,13
2017-06-03T00:33:25.275Z,13
2017-06-03T00:34:44.017Z,13
2017-06-03T00:36:02.730Z,13
2017-06-03T00:37:21.439Z,13.1
2017-06-03T00:38:40.164Z,13.1
2017-06-03T00:39:58.861Z,13.1
2017-06-03T00:41:17.561Z,13.1
2017-06-03T00:42:36.274Z,13.1
2017-06-03T00:43:54.943Z,13.1
2017-06-03T00:45:13.666Z,13
2017-06-03T00:46:32.388Z,13
2017-06-03T00:47:51.057Z,12.9
2017-06-03T00:49:09.727Z,12.9
2017-06-03T00:50:28.448Z,12.8
2017-06-03T00:51:47.109Z,12.8
2017-06-03T00:53:05.826Z,12.8
2017-06-03T00:54:24.499Z,12.8
2017-06-03T00:55:43.221Z,12.7
2017-06-03T00:57:01.883Z,12.7
2017-06-03T00:58:20.564Z,12.7
2017-06-03T00:59:39.228Z,12.6
2017-06-03T01:00:57.912Z,12.6
2017-06-03T01:02:16.591Z,12.6
2017-06-03T01:03:35.322Z,12.6
2017-06-03T01:04:54.015Z,12.6
2017-06-03T01:06:12.717Z,12.6
2017-06-03T01:07:31.389Z,12.5
2017-06-03T01:08:50.068Z,12.5
2017-06-03T01:10:08.737Z,12.5
2017-06-03T01:11:27.466Z,12.5
2017-06-03T01:12:46.145Z,12.5
2017-06-03T01:14:04.808Z,12.5
2017-06-03T01:15:23.517Z,12.5
2017-06-03T01:16:42.250Z,12.5
2017-06-03T01:18:00.972Z,12.5
2017-06-03T01:19:19.637Z,12.5
2017-06-03T01:20:38.304Z,12.5
2017-06-03T01:21:57.019Z,12.5
2017-06-03T01:23:15.693Z,12.5
2017-06-03T01:24:34.367Z,12.5
2017-06-03T01:25:53.052Z,12.5
2017-06-03T01:27:11.730Z,12.6
2017-06-03T01:28:30.415Z,12.6
2017-06-03T01:29:49.139Z,12.7
2017-06-03T01:31:07.808Z,12.7
2017-06-03T01:32:26.498Z,12.8
2017-06-03T01:33:45.168Z,12.9
2017-06-03T01:35:03.853Z,13
2017-06-03T01:36:22.559Z,13.1
2017-06-03T01:37:41.253Z,13.2
2017-06-03T01:38:59.952Z,13.3
2017-06-03T01:40:18.621Z,13.3
2017-06-03T01:41:37.345Z,13.3
2017-06-03T01:42:56.056Z,13.3
2017-06-03T01:44:14.725Z,13.3
2017-06-03T01:45:33.389Z,13.3
2017-06-03T01:46:52.058Z,13.4
2017-06-03T01:48:10.738Z,13.4
2017-06-03T01:49:29.444Z,13.4
2017-06-03T01:50:48.115Z,13.5
2017-06-03T01:52:06.787Z,13.5
2017-06-03T01:53:25.506Z,13.5
2017-06-03T01:54:44.182Z,13.5
2017-06-03T01:56:02.858Z,13.5
2017-06-03T01:57:21.559Z,13.6
2017-06-03T01:58:40.266Z,13.6
2017-06-03T01:59:58.953Z,13.6
2017-06-03T02:01:17.662Z,13.6
2017-06-03T02:02:36.341Z,13.6
2017-06-03T02:03:55.055Z,13.6
2017-06-03T02:05:13.725Z,13.6
2017-06-03T02:06:32.420Z,13.6
2017-06-03T02:07:51.111Z,13.6
2017-06-03T02:09:09.815Z,13.6
2017-06-03T02:10:28.484Z,13.6
2017-06-03T02:11:47.158Z,13.6
2017-06-03T02:13:05.843Z,13.6
2017-06-03T02:14:24.580Z,13.6
2017-06-03T02:15:43.245Z,13.6
2017-06-03T02:17:01.991Z,13.6
2017-06-03T02:18:20.654Z,13.5
2017-06-03T02:19:39.332Z,13.5
2017-06-03T02:20:58.059Z,13.5
2017-06-03T02:22:16.736Z,13.5
2017-06-03T02:23:35.402Z,13.5
2017-06-03T02:24:54.139Z,13.4
2017-06-03T02:26:12.806Z,13.4
2017-06-03T02:27:31.530Z,13.3
2017-06-03T02:28:50.239Z,13.3
2017-06-03T02:30:08.947Z,13.2
2017-06-03T02:31:27.664Z,13.1
2017-06-03T02:32:46.333Z,13.1
2017-06-03T02:34:05.035Z,13.1
2017-06-03T02:35:23.728Z,13.1
2017-06-03T02:36:42.490Z,13.1
2017-06-03T02:38:01.160Z,13.1
2017-06-03T02:39:19.825Z,13.2
2017-06-03T02:40:38.568Z,13.2
2017-06-03T02:41:57.242Z,13.3
2017-06-03T02:43:15.933Z,13.3
2017-06-03T02:44:34.608Z,13.3
2017-06-03T02:45:53.322Z,13.4
2017-06-03T02:47:12.030Z,13.3
2017-06-03T02:48:30.694Z,13.3
2017-06-03T02:49:49.368Z,13.4
2017-06-03T02:51:08.044Z,13.4
2017-06-03T02:52:26.706Z,13.4
2017-06-03T02:53:45.421Z,13.4
2017-06-03T02:55:04.115Z,13.4
2017-06-03T02:56:22.834Z,13.5
2017-06-03T02:57:41.556Z,13.5
2017-06-03T02:59:00.228Z,13.5
2017-06-03T03:00:18.922Z,13.6
2017-06-03T03:01:37.605Z,13.6
2017-06-03T03:02:56.283Z,13.6
2017-06-03T03:04:14.948Z,13.6
2017-06-03T03:05:33.652Z,13.6
2017-06-03T03:06:52.425Z,13.6
2017-06-03T03:08:11.122Z,13.6
2017-06-03T03:09:29.827Z,13.7
2017-06-03T03:10:48.551Z,13.7
2017-06-03T03:12:07.291Z,13.7
2017-06-03T03:13:25.969Z,13.7
2017-06-03T03:14:44.640Z,13.8
2017-06-03T03:16:03.314Z,13.8
2017-06-03T03:17:22.006Z,13.8
2017-06-03T03:18:40.721Z,13.8
2017-06-03T03:19:59.396Z,13.9
2017-06-03T03:21:18.101Z,13.9
2017-06-03T03:22:36.775Z,13.9
2017-06-03T03:23:55.441Z,13.9
2017-06-03T03:25:14.174Z,14
2017-06-03T03:26:32.851Z,14
2017-06-03T03:27:51.594Z,14
2017-06-03T03:29:10.316Z,14
2017-06-03T03:30:29.044Z,14.1
2017-06-03T03:31:47.753Z,14.1
2017-06-03T03:33:06.425Z,14.2
2017-06-03T03:34:25.117Z,14.3
2017-06-03T03:35:43.839Z,14.4
2017-06-03T03:37:02.559Z,14.4
2017-06-03T03:38:21.254Z,14.4
2017-06-03T03:39:39.942Z,14.4
2017-06-03T03:40:58.611Z,14.5
2017-06-03T03:42:17.342Z,14.5
2017-06-03T03:43:36.034Z,14.6
2017-06-03T03:44:54.693Z,14.6
2017-06-03T03:46:13.357Z,14.7
2017-06-03T03:47:32.079Z,14.8
2017-06-03T03:48:50.784Z,14.8
2017-06-03T03:50:09.464Z,14.9
2017-06-03T03:51:28.132Z,15
2017-06-03T03:52:46.797Z,15.1
2017-06-03T03:54:05.474Z,15.2
2017-06-03T03:55:24.169Z,15.3
2017-06-03T03:56:42.841Z,15.4
2017-06-03T03:58:01.563Z,15.5
2017-06-03T03:59:20.269Z,15.5
2017-06-03T04:00:38.968Z,15.6
2017-06-03T04:01:57.640Z,15.6
2017-06-03T04:03:16.339Z,15.6
2017-06-03T04:04:35.039Z,15.5
2017-06-03T04:05:53.747Z,15.5
2017-06-03T04:07:12.466Z,15.5
2017-06-03T04:08:31.136Z,15.4
2017-06-03T04:09:49.869Z,15.4
2017-06-03T04:11:08.590Z,15.3
2017-06-03T04:12:27.296Z,15.2
2017-06-03T04:13:45.957Z,15.2
2017-06-03T04:15:04.661Z,15.1
2017-06-03T04:16:23.325Z,15.1
2017-06-03T04:17:42.028Z,15
2017-06-03T04:19:00.694Z,15
2017-06-03T04:20:19.385Z,14.9
2017-06-03T04:21:38.078Z,14.8
2017-06-03T04:22:56.738Z,14.8
2017-06-03T04:24:15.439Z,14.7
2017-06-03T04:25:34.169Z,14.7
2017-06-03T04:26:52.833Z,14.7
2017-06-03T04:28:11.558Z,14.7
2017-06-03T04:29:30.233Z,14.7
2017-06-03T04:30:48.989Z,14.8
2017-06-03T04:32:07.652Z,14.8
2017-06-03T04:33:26.316Z,14.8
2017-06-03T04:34:45.035Z,14.9
2017-06-03T04:36:03.715Z,14.9
2017-06-03T04:37:22.407Z,14.9
2017-06-03T04:38:41.082Z,14.9
2017-06-03T04:39:59.761Z,14.9
2017-06-03T04:41:18.463Z,14.9
2017-06-03T04:42:37.129Z,14.9
2017-06-03T04:43:55.834Z,14.9
2017-06-03T04:45:14.561Z,14.8
2017-06-03T04:46:33.294Z,14.8
2017-06-03T04:47:51.962Z,14.9
2017-06-03T04:49:10.627Z,14.9
2017-06-03T04:50:29.314Z,15
2017-06-03T04:51:48.019Z,15
2017-06-03T04:53:06.695Z,15.1
2017-06-03T04:54:25.364Z,15.1
2017-06-03T04:55:44.066Z,15.1
2017-06-03T04:57:02.741Z,15.1
2017-06-03T04:58:21.412Z,15.1
2017-06-03T04:59:40.081Z,15.1
2017-06-03T05:00:58.757Z,15.1
2017-06-03T05:02:17.497Z,15.1
2017-06-03T05:03:36.163Z,15.1
2017-06-03T05:04:54.828Z,15.1
2017-06-03T05:06:13.505Z,15.1
2017-06-03T05:07:32.177Z,15.2
2017-06-03T05:08:50.883Z,15.2
2017-06-03T05:10:09.598Z,15.2
2017-06-03T05:11:28.322Z,15.2
2017-06-03T05:12:47.043Z,15.3
2017-06-03T05:14:05.724Z,15.3
2017-06-03T05:15:24.395Z,15.3
2017-06-03T05:16:43.056Z,15.4
2017-06-03T05:18:01.753Z,15.4
2017-06-03T05:19:20.421Z,15.5
2017-06-03T05:20:39.112Z,15.6
2017-06-03T05:21:57.777Z,15.6
2017-06-03T05:23:16.514Z,15.7
2017-06-03T05:24:35.175Z,15.7
2017-06-03T05:25:53.893Z,15.8
2017-06-03T05:27:12.561Z,15.9
2017-06-03T05:28:31.238Z,16
2017-06-03T05:29:49.947Z,16
2017-06-03T05:31:08.610Z,16.1
2017-06-03T05:32:27.335Z,16.1
2017-06-03T05:33:46.054Z,16.2
2017-06-03T05:35:04.721Z,16.2
2017-06-03T05:36:23.451Z,16.2
2017-06-03T05:37:42.178Z,16.3
2017-06-03T05:39:00.855Z,16.3
2017-06-03T05:40:19.565Z,16.4
2017-06-03T05:41:38.231Z,16.5
2017-06-03T05:42:56.906Z,16.5
2017-06-03T05:44:15.602Z,16.5
2017-06-03T05:45:34.269Z,16.5
2017-06-03T05:46:52.989Z,16.6
2017-06-03T05:48:11.703Z,16.6
2017-06-03T05:49:30.404Z,16.6
2017-06-03T05:50:49.100Z,16.6
2017-06-03T05:52:07.827Z,16.6
2017-06-03T05:53:26.529Z,16.6
2017-06-03T05:54:45.259Z,16.6
2017-06-03T05:56:03.998Z,16.6
2017-06-03T05:57:22.664Z,16.6
2017-06-03T05:58:41.338Z,16.6
2017-06-03T06:00:00.051Z,16.6
2017-06-03T06:01:18.728Z,16.6
2017-06-03T06:02:37.460Z,16.6
2017-06-03T06:03:56.126Z,16.6
2017-06-03T06:05:14.828Z,16.7
2017-06-03T06:06:33.523Z,16.8
2017-06-03T06:07:52.217Z,16.8
2017-06-03T06:09:10.883Z,16.9
2017-06-03T06:10:29.579Z,17
2017-06-03T06:11:48.249Z,17.1
2017-06-03T06:13:06.917Z,17.1
2017-06-03T06:14:25.584Z,17.2
2017-06-03T06:15:44.315Z,17.3
2017-06-03T06:17:03.026Z,17.4
2017-06-03T06:18:21.696Z,17.5
2017-06-03T06:19:40.365Z,17.6
2017-06-03T06:20:59.150Z,17.7
2017-06-03T06:22:17.865Z,17.7
2017-06-03T06:23:36.580Z,17.8
2017-06-03T06:24:55.303Z,17.9
2017-06-03T06:26:14.009Z,17.9
2017-06-03T06:27:32.671Z,17.9
2017-06-03T06:28:51.339Z,18
2017-06-03T06:30:10.029Z,18
2017-06-03T06:31:28.731Z,18.1
2017-06-03T06:32:47.435Z,18.2
2017-06-03T06:34:06.104Z,18.3
2017-06-03T06:35:24.769Z,18.5
2017-06-03T06:36:43.497Z,18.5
2017-06-03T06:38:02.164Z,18.6
2017-06-03T06:39:20.835Z,18.7
2017-06-03T06:40:39.541Z,18.8
2017-06-03T06:41:58.269Z,18.9
2017-06-03T06:43:16.935Z,19
2017-06-03T06:44:35.626Z,19.1
2017-06-03T06:45:54.325Z,19.2
2017-06-03T06:47:12.998Z,19.3
2017-06-03T06:48:31.708Z,19.3
2017-06-03T06:49:50.373Z,19.3
2017-06-03T06:51:09.104Z,19.3
2017-06-03T06:52:27.793Z,19.5
2017-06-03T06:53:46.458Z,19.6
2017-06-03T06:55:05.124Z,19.8
2017-06-03T06:56:23.832Z,20
2017-06-03T06:57:42.560Z,20.1
2017-06-03T06:59:01.266Z,20.3
2017-06-03T07:00:19.991Z,20.4
2017-06-03T07:01:38.663Z,20.6
2017-06-03T07:02:57.407Z,20.7
2017-06-03T07:04:16.073Z,20.8
2017-06-03T07:05:34.768Z,20.9
2017-06-03T07:06:53.440Z,21.1
2017-06-03T07:08:12.142Z,21
2017-06-03T07:09:30.809Z,21
2017-06-03T07:10:49.481Z,21
2017-06-03T07:12:08.144Z,21
2017-06-03T07:13:26.823Z,21.2
2017-06-03T07:14:45.541Z,21.3
2017-06-03T07:16:04.218Z,21.3
2017-06-03T07:17:22.891Z,21.5
2017-06-03T07:18:41.574Z,21.5
2017-06-03T07:20:00.238Z,21.7
2017-06-03T07:21:18.932Z,21.8
2017-06-03T07:22:37.600Z,22
2017-06-03T07:23:56.298Z,22
2017-06-03T07:25:14.966Z,22.2
2017-06-03T07:26:33.636Z,22.2
2017-06-03T07:27:52.355Z,22.3
2017-06-03T07:29:11.041Z,22.4
2017-06-03T07:30:29.741Z,22.5
2017-06-03T07:31:48.408Z,22.6
2017-06-03T07:33:07.119Z,22.6
2017-06-03T07:34:25.816Z,22.7
2017-06-03T07:35:44.486Z,22.7
2017-06-03T07:37:03.155Z,22.8
2017-06-03T07:38:21.819Z,22.8
2017-06-03T07:39:40.508Z,22.9
2017-06-03T07:40:59.179Z,23
2017-06-03T07:42:17.849Z,23.1
2017-06-03T07:43:36.562Z,23.2
2017-06-03T07:44:55.234Z,23.3
2017-06-03T07:46:13.925Z,23.4
2017-06-03T07:47:32.595Z,23.6
2017-06-03T07:48:51.263Z,23.8
2017-06-03T07:50:09.961Z,23.9
2017-06-03T07:51:28.666Z,24
2017-06-03T07:52:47.413Z,24.1
2017-06-03T07:54:06.090Z,24.1
2017-06-03T07:55:24.831Z,24
2017-06-03T07:56:43.500Z,24
2017-06-03T07:58:02.173Z,24
2017-06-03T07:59:20.855Z,24
2017-06-03T08:00:39.595Z,23.9
2017-06-03T08:01:58.264Z,23.9
2017-06-03T08:03:16.942Z,24
2017-06-03T08:04:35.662Z,23.9
2017-06-03T08:05:54.330Z,23.9
2017-06-03T08:07:13.058Z,23.8
2017-06-03T08:08:31.722Z,23.8
2017-06-03T08:09:50.389Z,23.7
2017-06-03T08:11:09.110Z,23.7
2017-06-03T08:12:27.813Z,23.7
2017-06-03T08:13:46.483Z,23.8
2017-06-03T08:15:05.172Z,23.8
2017-06-03T08:16:23.930Z,23.8
2017-06-03T08:17:42.644Z,23.7
2017-06-03T08:19:01.315Z,23.6
2017-06-03T08:20:19.987Z,23.7
2017-06-03T08:21:38.689Z,23.7
2017-06-03T08:22:57.418Z,23.9
2017-06-03T08:24:16.089Z,24
2017-06-03T08:25:34.764Z,24.1
2017-06-03T08:26:53.454Z,24.2
2017-06-03T08:28:12.130Z,24.2
2017-06-03T08:29:30.802Z,24.1
2017-06-03T08:30:49.525Z,24.1
2017-06-03T08:32:08.224Z,24.1
2017-06-03T08:33:26.935Z,24.1
2017-06-03T08:34:45.606Z,24.1
2017-06-03T08:36:04.274Z,24.2
2017-06-03T08:37:23.022Z,24.3
2017-06-03T08:38:41.745Z,24.5
2017-06-03T08:40:00.417Z,24.7
2017-06-03T08:41:19.108Z,24.7
2017-06-03T08:42:37.857Z,24.8
2017-06-03T08:43:56.561Z,24.8
2017-06-03T08:45:15.263Z,25.1
2017-06-03T08:46:33.978Z,25.3
2017-06-03T08:47:52.679Z,25.2
2017-06-03T08:49:11.352Z,25.3
2017-06-03T08:50:30.020Z,25.6
2017-06-03T08:51:48.682Z,25.9
2017-06-03T08:53:07.401Z,26.2
2017-06-03T08:54:26.066Z,26.3
2017-06-03T08:55:44.783Z,26.3
2017-06-03T08:57:03.455Z,26.3
2017-06-03T08:58:22.155Z,26.5
2017-06-03T08:59:40.827Z,26.5
2017-06-03T09:00:59.499Z,26.6
2017-06-03T09:02:18.170Z,26.9
2017-06-03T09:03:36.847Z,26.9
2017-06-03T09:04:55.560Z,26.9
2017-06-03T09:06:14.236Z,26.8
2017-06-03T09:07:32.914Z,26.8
2017-06-03T09:08:51.619Z,26.9
2017-06-03T09:10:10.323Z,26.8
2017-06-03T09:11:29.016Z,26.8
2017-06-03T09:12:47.709Z,27
2017-06-03T09:14:06.406Z,27.3
2017-06-03T09:15:25.078Z,27.3
2017-06-03T09:16:43.775Z,27.5
2017-06-03T09:18:02.491Z,27.6
2017-06-03T09:19:21.177Z,27.7
2017-06-03T09:20:39.897Z,27.7
2017-06-03T09:21:58.563Z,27.8
2017-06-03T09:23:17.225Z,28
2017-06-03T09:24:35.900Z,28
2017-06-03T09:25:54.570Z,27.9
2017-06-03T09:27:13.236Z,27.9
2017-06-03T09:28:31.940Z,27.9
2017-06-03T09:29:50.646Z,28.1
2017-06-03T09:31:09.343Z,28.3
2017-06-03T09:32:28.051Z,28.5
2017-06-03T09:33:46.717Z,28.8
2017-06-03T09:35:05.389Z,29.1
2017-06-03T09:36:24.098Z,29.2
2017-06-03T09:37:42.789Z,29.1
2017-06-03T09:39:01.509Z,29.2
2017-06-03T09:40:20.216Z,29
2017-06-03T09:41:38.911Z,28.9
2017-06-03T09:42:57.574Z,29
2017-06-03T09:44:16.245Z,29.1
2017-06-03T09:45:34.951Z,29
2017-06-03T09:46:53.661Z,29.1
2017-06-03T09:48:12.401Z,29.3
2017-06-03T09:49:31.130Z,29.3
2017-06-03T09:50:49.827Z,29
2017-06-03T09:52:08.493Z,29
2017-06-03T09:53:27.185Z,28.7
2017-06-03T09:54:45.899Z,28.6
2017-06-03T09:56:04.575Z,28.4
2017-06-03T09:57:23.276Z,28.4
2017-06-03T09:58:41.957Z,28.5
2017-06-03T10:00:00.623Z,28.4
2017-06-03T10:01:19.370Z,28.4
2017-06-03T10:02:38.032Z,28.5
2017-06-03T10:03:56.696Z,28.7
2017-06-03T10:05:15.357Z,29
2017-06-03T10:06:34.078Z,29.1
2017-06-03T10:07:52.779Z,29.2
2017-06-03T10:09:11.472Z,29.3
2017-06-03T10:10:30.179Z,29.4
2017-06-03T10:11:48.930Z,29.4
2017-06-03T10:13:07.606Z,29.5
2017-06-03T10:14:26.276Z,29.6
2017-06-03T10:15:44.991Z,29.9
2017-06-03T10:17:03.699Z,30
2017-06-03T10:18:22.399Z,30.2
2017-06-03T10:19:41.065Z,30.3
2017-06-03T10:20:59.733Z,30.2
2017-06-03T10:22:18.432Z,30.4
2017-06-03T10:23:37.104Z,30.4
2017-06-03T10:24:55.769Z,30.3
2017-06-03T10:26:14.436Z,30.4
2017-06-03T10:27:33.113Z,30.7
2017-06-03T10:28:51.814Z,30.9
2017-06-03T10:30:10.480Z,31
2017-06-03T10:31:29.161Z,30.9
2017-06-03T10:32:47.878Z,30.8
2017-06-03T10:34:06.565Z,30.7
2017-06-03T10:35:25.232Z,30.8
2017-06-03T10:36:43.961Z,30.6
2017-06-03T10:38:02.634Z,30.6
2017-06-03T10:39:21.303Z,30.6
2017-06-03T10:40:39.978Z,30.6
2017-06-03T10:41:58.646Z,30.3
2017-06-03T10:43:17.416Z,30.3
2017-06-03T10:44:36.087Z,30.3
2017-06-03T10:45:54.799Z,30.1
2017-06-03T10:47:13.478Z,30.1
2017-06-03T10:48:32.218Z,30
2017-06-03T10:49:50.888Z,29.9
2017-06-03T10:51:09.606Z,29.4
2017-06-03T10:52:28.326Z,29.3
2017-06-03T10:53:47.004Z,29
2017-06-03T10:55:05.676Z,28.9
2017-06-03T10:56:24.348Z,28.7
2017-06-03T10:57:43.016Z,28.8
2017-06-03T10:59:01.706Z,28.8
2017-06-03T11:00:20.378Z,28.9
2017-06-03T11:01:39.123Z,28.8
2017-06-03T11:02:57.789Z,28.8
2017-06-03T11:04:16.498Z,28.9
2017-06-03T11:05:35.172Z,28.7
2017-06-03T11:06:53.859Z,28.4
2017-06-03T11:08:12.567Z,28.4
2017-06-03T11:09:31.259Z,28.4
2017-06-03T11:10:49.928Z,28.4
2017-06-03T11:12:08.593Z,28.5
2017-06-03T11:13:27.318Z,28.7
2017-06-03T11:14:46.002Z,28.8
2017-06-03T11:16:04.717Z,28.8
2017-06-03T11:17:23.392Z,28.9
2017-06-03T11:18:42.060Z,28.7
2017-06-03T11:20:00.796Z,28.8
2017-06-03T11:21:19.473Z,29.1
2017-06-03T11:22:38.146Z,29.2
2017-06-03T11:23:56.819Z,29.1
2017-06-03T11:25:15.576Z,28.8
2017-06-03T11:26:34.283Z,29
2017-06-03T11:27:52.956Z,29.5
2017-06-03T11:29:11.622Z,29.7
2017-06-03T11:30:30.354Z,29.8
2017-06-03T11:31:49.050Z,30.2
2017-06-03T11:33:07.739Z,30.6
2017-06-03T11:34:26.462Z,30.5
2017-06-03T11:35:45.162Z,30.5
2017-06-03T11:37:03.849Z,30.7
2017-06-03T11:38:22.565Z,30.8
2017-06-03T11:39:41.234Z,31.1
2017-06-03T11:40:59.904Z,31.2
2017-06-03T11:42:18.575Z,31.1
2017-06-03T11:43:37.278Z,31.1
2017-06-03T11:44:55.950Z,31.2
2017-06-03T11:46:14.685Z,31.4
2017-06-03T11:47:33.354Z,31.8
2017-06-03T11:48:52.018Z,32.2
2017-06-03T11:50:10.684Z,32.7
2017-06-03T11:51:29.409Z,33
2017-06-03T11:52:48.131Z,34
2017-06-03T11:54:06.841Z,34.4
2017-06-03T11:55:25.558Z,34.6
2017-06-03T11:56:44.234Z,34.6
2017-06-03T11:58:02.905Z,35
2017-06-03T11:59:21.577Z,35.5
2017-06-03T12:00:40.254Z,35.7
2017-06-03T12:01:58.983Z,35.4
2017-06-03T12:03:17.641Z,35.2
2017-06-03T12:04:36.352Z,35.7
2017-06-03T12:05:55.026Z,35.4
2017-06-03T12:07:13.722Z,35.1
2017-06-03T12:08:32.461Z,34.9
2017-06-03T12:09:51.130Z,34.7
2017-06-03T12:11:09.829Z,34.7
2017-06-03T12:12:28.552Z,34.7
2017-06-03T12:13:47.223Z,34.6
2017-06-03T12:15:05.922Z,35.1
2017-06-03T12:16:24.590Z,35.7
2017-06-03T12:17:43.294Z,36.2
2017-06-03T12:19:01.962Z,36.5
2017-06-03T12:20:20.680Z,36.8
2017-06-03T12:21:39.370Z,36.8
2017-06-03T12:22:58.077Z,36.7
2017-06-03T12:24:16.789Z,36.9
2017-06-03T12:25:35.455Z,37
2017-06-03T12:26:54.182Z,37
2017-06-03T12:28:12.857Z,37.1
2017-06-03T12:29:31.565Z,36.8
2017-06-03T12:30:50.288Z,36.5
2017-06-03T12:32:08.985Z,36.6
2017-06-03T12:33:27.728Z,36.9
2017-06-03T12:34:46.392Z,37
2017-06-03T12:36:05.058Z,37.2
2017-06-03T12:37:23.730Z,37.3
2017-06-03T12:38:42.481Z,37.5
2017-06-03T12:40:01.147Z,37.2
2017-06-03T12:41:19.819Z,37.2
2017-06-03T12:42:38.486Z,37.1
2017-06-03T12:43:57.160Z,36.6
2017-06-03T12:45:15.863Z,36
2017-06-03T12:46:34.565Z,36
2017-06-03T12:47:53.277Z,35.9
2017-06-03T12:49:12.029Z,36.3
2017-06-03T12:50:30.734Z,35.9
2017-06-03T12:51:49.411Z,35.6
2017-06-03T12:53:08.082Z,35.3
2017-06-03T12:54:26.831Z,35
2017-06-03T12:55:45.492Z,34.8
2017-06-03T12:57:04.214Z,34.6
2017-06-03T12:58:22.879Z,34.5
2017-06-03T12:59:41.627Z,34.4
2017-06-03T13:01:00.344Z,34.5
2017-06-03T13:02:19.031Z,34.5
2017-06-03T13:03:37.754Z,34.5
2017-06-03T13:04:56.429Z,34.4
2017-06-03T13:06:15.095Z,34.4
2017-06-03T13:07:33.773Z,34.6
2017-06-03T13:08:52.504Z,35.3
2017-06-03T13:10:11.217Z,35.4
2017-06-03T13:11:29.888Z,35.1
2017-06-03T13:12:48.561Z,34.8
2017-06-03T13:14:07.237Z,34.5
2017-06-03T13:15:25.929Z,34.4
2017-06-03T13:16:44.595Z,33.7
2017-06-03T13:18:03.316Z,32.8
2017-06-03T13:19:21.984Z,32
2017-06-03T13:20:40.661Z,31.6
2017-06-03T13:21:59.321Z,31.1
2017-06-03T13:23:18.010Z,30.7
2017-06-03T13:24:36.676Z,30.4
2017-06-03T13:25:55.398Z,30
2017-06-03T13:27:14.138Z,29.8
2017-06-03T13:28:32.831Z,29.7
2017-06-03T13:29:51.497Z,29.3
2017-06-03T13:31:10.224Z,29
2017-06-03T13:32:28.944Z,28.7
2017-06-03T13:33:47.612Z,28.5
2017-06-03T13:35:06.306Z,28.3
2017-06-03T13:36:24.985Z,28.1
2017-06-03T13:37:43.652Z,27.8
2017-06-03T13:39:02.398Z,27.7
2017-06-03T13:40:21.069Z,27.6
2017-06-03T13:41:39.772Z,27.3
2017-06-03T13:42:58.465Z,26.8
2017-06-03T13:44:17.131Z,26.6
2017-06-03T13:45:35.790Z,26.5
2017-06-03T13:46:54.517Z,26.5
2017-06-03T13:48:13.245Z,26.5
2017-06-03T13:49:31.915Z,26.4
2017-06-03T13:50:50.585Z,26.3
2017-06-03T13:52:09.336Z,26.2
2017-06-03T13:53:28.045Z,25.9
2017-06-03T13:54:46.712Z,25.5
2017-06-03T13:56:05.379Z,24.8
2017-06-03T13:57:24.111Z,24.3
2017-06-03T13:58:42.805Z,24.1
2017-06-03T14:00:01.490Z,23.9
2017-06-03T14:01:20.209Z,23.8
2017-06-03T14:02:38.921Z,23.7
2017-06-03T14:03:57.606Z,23.5
2017-06-03T14:05:16.336Z,23.2
2017-06-03T14:06:35.037Z,22.9
2017-06-03T14:07:53.730Z,22.4
2017-06-03T14:09:12.436Z,21.7
2017-06-03T14:10:31.120Z,21
2017-06-03T14:11:49.798Z,20.6
2017-06-03T14:13:08.546Z,20.4
2017-06-03T14:14:27.213Z,20.3
2017-06-03T14:15:45.878Z,20.3
2017-06-03T14:17:04.558Z,20.3
2017-06-03T14:18:23.264Z,20.3
2017-06-03T14:19:41.991Z,20.4
2017-06-03T14:21:00.690Z,20.4
2017-06-03T14:22:19.353Z,20.4
2017-06-03T14:23:38.077Z,20.4
2017-06-03T14:24:56.743Z,20.5
2017-06-03T14:26:15.457Z,20.6
2017-06-03T14:27:34.144Z,20.6
2017-06-03T14:28:52.889Z,20.6
2017-06-03T14:30:11.565Z,20.7
2017-06-03T14:31:30.284Z,20.8
2017-06-03T14:32:48.987Z,20.9
2017-06-03T14:34:07.680Z,20.9
2017-06-03T14:35:26.402Z,20.9
2017-06-03T14:36:45.073Z,21
2017-06-03T14:38:03.757Z,21
2017-06-03T14:39:22.450Z,20.9
2017-06-03T14:40:41.127Z,20.9
2017-06-03T14:41:59.804Z,20.8
2017-06-03T14:43:18.471Z,20.8
2017-06-03T14:44:37.200Z,20.8
2017-06-03T14:45:55.869Z,20.8
2017-06-03T14:47:14.568Z,20.9
2017-06-03T14:48:33.245Z,20.8
2017-06-03T14:49:51.922Z,20.7
2017-06-03T14:51:10.586Z,20.8
2017-06-03T14:52:29.303Z,20.9
2017-06-03T14:53:48.001Z,20.9
2017-06-03T14:55:06.690Z,20.9
2017-06-03T14:56:25.358Z,20.9
2017-06-03T14:57:44.111Z,21
2017-06-03T14:59:02.804Z,21.2
2017-06-03T15:00:21.546Z,21.5
2017-06-03T15:01:40.217Z,21.6
2017-06-03T15:02:58.941Z,21.6
2017-06-03T15:04:17.612Z,21.8
2017-06-03T15:05:36.343Z,21.9
2017-06-03T15:06:55.017Z,21.9
2017-06-03T15:08:13.695Z,21.9
2017-06-03T15:09:32.398Z,22
2017-06-03T15:10:51.113Z,22
2017-06-03T15:12:09.776Z,22
2017-06-03T15:13:28.474Z,21.8
2017-06-03T15:14:47.205Z,21.8
2017-06-03T15:16:05.911Z,21.9
2017-06-03T15:17:24.581Z,21.8
2017-06-03T15:18:43.253Z,21.7
2017-06-03T15:20:01.917Z,21.8
2017-06-03T15:21:20.603Z,21.9
2017-06-03T15:22:39.274Z,22.1
2017-06-03T15:23:57.937Z,22.4
2017-06-03T15:25:16.612Z,22.7
2017-06-03T15:26:35.344Z,23.1
2017-06-03T15:27:54.045Z,23.3
2017-06-03T15:29:12.723Z,23.5
2017-06-03T15:30:31.393Z,24
2017-06-03T15:31:50.153Z,24.3
2017-06-03T15:33:08.902Z,24.3
2017-06-03T15:34:27.609Z,24.4
2017-06-03T15:35:46.330Z,24.6
2017-06-03T15:37:05.051Z,24.7
2017-06-03T15:38:23.726Z,24.9
2017-06-03T15:39:42.432Z,25
2017-06-03T15:41:01.151Z,24.9
2017-06-03T15:42:19.828Z,24.9
2017-06-03T15:43:38.501Z,25.1
2017-06-03T15:44:57.170Z,25.6
2017-06-03T15:46:15.832Z,26.2
2017-06-03T15:47:34.538Z,26.1
2017-06-03T15:48:53.202Z,25.9
2017-06-03T15:50:11.876Z,25.9
2017-06-03T15:51:30.564Z,26.2
2017-06-03T15:52:49.301Z,26.2
2017-06-03T15:54:07.978Z,25.8
2017-06-03T15:55:26.645Z,25.7
2017-06-03T15:56:45.371Z,26
2017-06-03T15:58:04.077Z,27
2017-06-03T15:59:22.752Z,28.3
2017-06-03T16:00:41.416Z,28
2017-06-03T16:02:00.125Z,27.6
2017-06-03T16:03:18.890Z,27.2
2017-06-03T16:04:37.569Z,26.8
2017-06-03T16:05:56.232Z,26.2
2017-06-03T16:07:14.919Z,25.9
2017-06-03T16:08:33.593Z,25.7
2017-06-03T16:09:52.315Z,26.1
2017-06-03T16:11:11.013Z,25.9
2017-06-03T16:12:29.680Z,25.2
2017-06-03T16:13:48.427Z,24.5
2017-06-03T16:15:07.099Z,24
2017-06-03T16:16:25.801Z,23.5
2017-06-03T16:17:44.470Z,23.3
2017-06-03T16:19:03.171Z,23.3
2017-06-03T16:20:21.873Z,23.3
2017-06-03T16:21:40.566Z,23.2
2017-06-03T16:22:59.242Z,23.2
2017-06-03T16:24:17.916Z,23.2
2017-06-03T16:25:36.626Z,23.1
2017-06-03T16:26:55.315Z,22.9
2017-06-03T16:28:14.016Z,22.7
2017-06-03T16:29:32.718Z,22.5
2017-06-03T16:30:51.450Z,22.3
2017-06-03T16:32:10.135Z,22
2017-06-03T16:33:28.882Z,21.8
2017-06-03T16:34:47.582Z,21.7
2017-06-03T16:36:06.246Z,21.5
2017-06-03T16:37:24.917Z,21.4
2017-06-03T16:38:43.591Z,21.1
2017-06-03T16:40:02.326Z,21
2017-06-03T16:41:21.038Z,20.7
2017-06-03T16:42:39.711Z,20.6
2017-06-03T16:43:58.400Z,20.6
2017-06-03T16:45:17.081Z,20.6
2017-06-03T16:46:35.797Z,20.6
2017-06-03T16:47:54.518Z,20.6
2017-06-03T16:49:13.187Z,20.6
2017-06-03T16:50:31.959Z,20.7
2017-06-03T16:51:50.621Z,20.7
2017-06-03T16:53:09.304Z,20.7
2017-06-03T16:54:27.968Z,20.7
2017-06-03T16:55:46.662Z,20.7
2017-06-03T16:57:05.333Z,20.7
2017-06-03T16:58:24.029Z,20.7
2017-06-03T16:59:42.693Z,20.8
2017-06-03T17:01:01.404Z,21
2017-06-03T17:02:20.087Z,21
2017-06-03T17:03:38.763Z,21.2
2017-06-03T17:04:57.493Z,21.8
2017-06-03T17:06:16.254Z,22.3
2017-06-03T17:07:34.954Z,22.7
2017-06-03T17:08:53.619Z,23
2017-06-03T17:10:12.344Z,23.5
2017-06-03T17:11:31.034Z,24
2017-06-03T17:12:49.707Z,24.5
2017-06-03T17:14:08.425Z,24.9
2017-06-03T17:15:27.088Z,25
2017-06-03T17:16:45.805Z,24.8
2017-06-03T17:18:04.470Z,24.8
2017-06-03T17:19:23.160Z,24.6
2017-06-03T17:20:41.824Z,24.2
2017-06-03T17:22:00.525Z,23.8
2017-06-03T17:23:19.241Z,23.4
2017-06-03T17:24:37.965Z,23.1
2017-06-03T17:25:56.640Z,23
2017-06-03T17:27:15.340Z,22.8
2017-06-03T17:28:34.040Z,22.7
2017-06-03T17:29:52.705Z,22.6
2017-06-03T17:31:11.409Z,22.6
2017-06-03T17:32:30.113Z,22.7
2017-06-03T17:33:48.796Z,22.7
2017-06-03T17:35:07.487Z,22.8